OA08 weather

Medflight Heliport
Columbus, Ohio, United States

Public forecast

Using degrees Fahrenheit for public forecast. Weather courtesy of forecast.io.

METAR (pilot weather report)

Closest report is The Ohio State University Airport - Don Scott Field, 0.4 nm (0.7 km) SW. Retrieved 2019/05/24 10:53 UTC (47 minutes ago):

KOSU 241053Z 00000KT 10SM CLR 14/13 A3014 RMK AO2 SLP200 T01440133

TAF (pilot weather forecast)

Closest forecast is John Glenn Columbus International Airport, 9.6 nm (17.9 km) ESE. Retrieved 2019/05/24 06:36 UTC (5 hours ago):

TAF KCMH 240535Z 2406/2506 32006KT P6SM FEW250 FM240700 35004KT P6SM FEW250 FM241300 VRB04KT P6SM SCT100 FM242200 00000KT P6SM SCT120